createdAt,value
2022-09-07T00:01:50.853Z,101594.64
2022-09-07T00:04:19.795Z,101589.23
2022-09-07T00:06:48.722Z,101588.38
2022-09-07T00:09:17.638Z,101592.42
2022-09-07T00:11:47.031Z,101591.44
2022-09-07T00:14:15.939Z,101592.93
2022-09-07T00:16:44.794Z,101590.70
2022-09-07T00:19:13.691Z,101589.77
2022-09-07T00:21:42.651Z,101589.48
2022-09-07T00:24:11.783Z,101591.46
2022-09-07T00:26:40.738Z,101591.54
2022-09-07T00:29:11.127Z,101590.90
2022-09-07T00:31:40.079Z,101589.15
2022-09-07T00:34:09.017Z,101589.81
2022-09-07T00:36:37.926Z,101592.62
2022-09-07T00:39:07.181Z,101593.14
2022-09-07T00:41:36.050Z,101596.47
2022-09-07T00:44:51.272Z,101595.17
2022-09-07T00:47:24.964Z,101591.54
2022-09-07T00:49:59.138Z,101586.86
2022-09-07T00:52:31.167Z,101585.09
2022-09-07T00:55:06.486Z,101582.26
2022-09-07T00:57:37.798Z,101584.88
2022-09-07T01:00:09.981Z,101583.00
2022-09-07T01:02:39.955Z,101581.42
2022-09-07T01:05:15.785Z,101582.84
2022-09-07T01:07:45.937Z,101583.31
2022-09-07T01:10:15.806Z,101586.92
2022-09-07T01:12:44.727Z,101588.70
2022-09-07T01:15:13.687Z,101589.34
2022-09-07T01:17:55.959Z,101589.23
2022-09-07T01:20:45.087Z,101587.23
2022-09-07T01:23:49.679Z,101586.64
2022-09-07T01:26:43.342Z,101587.98
2022-09-07T01:29:19.892Z,101584.44
2022-09-07T01:32:00.878Z,101578.08
2022-09-07T01:34:30.495Z,101578.40
2022-09-07T01:37:05.602Z,101578.45
2022-09-07T01:39:43.706Z,101581.42
2022-09-07T01:42:15.351Z,101577.54
2022-09-07T01:44:50.102Z,101573.42
2022-09-07T01:47:22.554Z,101574.94
2022-09-07T01:49:55.358Z,101572.85
2022-09-07T01:52:31.596Z,101566.54
2022-09-07T01:55:06.850Z,101571.13
2022-09-07T01:57:43.098Z,101571.36
2022-09-07T02:00:18.506Z,101568.17
2022-09-07T02:02:51.427Z,101569.58
2022-09-07T02:05:23.570Z,101566.45
2022-09-07T02:07:57.599Z,101565.38
2022-09-07T02:10:33.362Z,101561.49
2022-09-07T02:13:06.722Z,101557.96
2022-09-07T02:15:44.651Z,101562.36
2022-09-07T02:18:14.618Z,101563.64
2022-09-07T02:20:48.527Z,101562.29
2022-09-07T02:23:21.906Z,101561.02
2022-09-07T02:25:54.664Z,101557.98
2022-09-07T02:28:28.187Z,101556.13
2022-09-07T02:30:57.182Z,101557.48
2022-09-07T02:33:26.859Z,101558.41
2022-09-07T02:35:56.674Z,101558.59
2022-09-07T02:38:26.003Z,101563.14
2022-09-07T02:40:57.208Z,101563.88
2022-09-07T02:43:28.071Z,101557.69
2022-09-07T02:46:17.840Z,101556.63
2022-09-07T02:48:57.241Z,101555.14
2022-09-07T02:51:35.273Z,101556.39
2022-09-07T02:54:23.457Z,101557.04
2022-09-07T02:56:58.860Z,101553.93
2022-09-07T02:59:51.385Z,101559.23
2022-09-07T03:02:29.079Z,101556.95
2022-09-07T03:05:05.846Z,101555.42
2022-09-07T03:07:42.185Z,101553.05
2022-09-07T03:10:15.672Z,101556.28
2022-09-07T03:12:46.074Z,101551.81
2022-09-07T03:15:17.332Z,101555.04
2022-09-07T03:18:18.136Z,101556.27
2022-09-07T03:20:46.884Z,101561.65
2022-09-07T03:23:15.279Z,101557.66
2022-09-07T03:25:43.648Z,101561.39
2022-09-07T03:28:12.098Z,101560.59
2022-09-07T03:30:43.609Z,101558.90
2022-09-07T03:33:12.198Z,101561.56
2022-09-07T03:35:40.673Z,101561.20
2022-09-07T03:38:09.134Z,101558.98
2022-09-07T03:40:37.746Z,101553.23
2022-09-07T03:43:06.217Z,101557.15
2022-09-07T03:45:34.768Z,101560.53
2022-09-07T03:48:03.820Z,101556.75
2022-09-07T03:50:32.209Z,101553.67
2022-09-07T03:53:00.715Z,101552.78
2022-09-07T03:55:29.156Z,101556.20
2022-09-07T03:57:57.556Z,101556.09
2022-09-07T04:00:26.072Z,101561.45
2022-09-07T04:02:54.597Z,101560.83
2022-09-07T04:05:25.537Z,101560.98
2022-09-07T04:07:53.970Z,101562.99
2022-09-07T04:10:22.353Z,101564.73
2022-09-07T04:12:50.865Z,101566.06
2022-09-07T04:15:19.307Z,101562.33
2022-09-07T04:17:47.795Z,101567.05
2022-09-07T04:20:16.711Z,101565.77
2022-09-07T04:22:51.390Z,101562.71
2022-09-07T04:25:22.237Z,101561.79
2022-09-07T04:27:50.936Z,101559.47
2022-09-07T04:30:19.426Z,101555.63
2022-09-07T04:32:48.134Z,101552.52
2022-09-07T04:35:16.870Z,101543.40
2022-09-07T04:37:45.867Z,101539.55
2022-09-07T04:40:14.381Z,101542.96
2022-09-07T04:42:43.160Z,101542.83
2022-09-07T04:45:12.384Z,101544.73
2022-09-07T04:47:46.012Z,101552.27
2022-09-07T04:50:14.746Z,101554.38
2022-09-07T04:52:43.155Z,101551.32
2022-09-07T04:55:12.144Z,101550.06
2022-09-07T04:57:42.489Z,101542.57
2022-09-07T05:00:12.952Z,101538.48
2022-09-07T05:02:41.406Z,101531.65
2022-09-07T05:05:10.540Z,101525.97
2022-09-07T05:07:39.481Z,101522.71
2022-09-07T05:10:08.973Z,101519.70
2022-09-07T05:12:37.477Z,101522.45
2022-09-07T05:15:07.484Z,101523.06
2022-09-07T05:17:36.741Z,101520.59
2022-09-07T05:20:07.398Z,101510.89
2022-09-07T05:22:40.363Z,101509.25
2022-09-07T05:25:09.721Z,101513.82
2022-09-07T05:27:38.143Z,101515.05
2022-09-07T05:36:26.541Z,101554.27
2022-09-07T05:38:57.817Z,101548.20
2022-09-07T05:41:27.775Z,101552.39
2022-09-07T05:46:45.121Z,101543.48
2022-09-07T05:49:13.545Z,101545.98
2022-09-07T05:51:42.073Z,101549.58
2022-09-07T05:54:11.663Z,101549.33
2022-09-07T05:56:41.208Z,101542.78
2022-09-07T05:59:09.912Z,101537.63
2022-09-07T06:01:38.388Z,101542.02
2022-09-07T06:04:07.186Z,101548.98
2022-09-07T06:06:38.410Z,101550.66
2022-09-07T06:09:08.567Z,101548.55
2022-09-07T06:11:37.034Z,101556.13
2022-09-07T06:14:05.457Z,101558.41
2022-09-07T06:16:34.727Z,101553.71
2022-09-07T06:19:06.455Z,101553.27
2022-09-07T06:21:37.053Z,101545.20
2022-09-07T06:24:07.220Z,101548.35
2022-09-07T06:26:35.642Z,101546.15
2022-09-07T06:29:04.114Z,101541.45
2022-09-07T06:31:32.737Z,101536.70
2022-09-07T06:34:01.450Z,101532.96
2022-09-07T06:36:31.165Z,101534.88
2022-09-07T06:39:01.074Z,101531.54
2022-09-07T06:44:21.146Z,101526.42
2022-09-07T06:47:05.146Z,101527.64
2022-09-07T06:49:33.814Z,101521.94
2022-09-07T06:52:02.954Z,101521.78
2022-09-07T06:57:19.840Z,101518.80
2022-09-07T06:59:48.316Z,101523.20
2022-09-07T07:02:16.677Z,101523.64
2022-09-07T07:04:45.975Z,101525.34
2022-09-07T07:07:14.426Z,101523.92
2022-09-07T07:09:42.943Z,101524.36
2022-09-07T07:12:11.733Z,101526.64
2022-09-07T07:14:44.704Z,101520.92
2022-09-07T07:17:13.701Z,101521.66
2022-09-07T07:19:42.164Z,101525.85
2022-09-07T07:24:59.069Z,101518.83
2022-09-07T07:27:31.124Z,101523.48
2022-09-07T07:29:59.540Z,101522.17
2022-09-07T07:32:28.015Z,101523.80
2022-09-07T07:34:56.399Z,101524.11
2022-09-07T07:37:27.994Z,101525.55
2022-09-07T07:42:45.230Z,101522.08
2022-09-07T07:48:04.189Z,101519.41
2022-09-07T07:50:33.538Z,101517.35
2022-09-07T07:55:51.345Z,101511.12
2022-09-07T07:58:20.612Z,101514.33
2022-09-07T08:00:56.977Z,101510.11
2022-09-07T08:03:26.001Z,101512.40
2022-09-07T08:05:55.260Z,101516.82
2022-09-07T08:08:24.383Z,101517.09
2022-09-07T08:10:52.943Z,101509.71
2022-09-07T08:13:21.706Z,101514.58
2022-09-07T08:15:50.391Z,101514.27
2022-09-07T08:18:18.927Z,101515.48
2022-09-07T08:20:47.351Z,101513.34
2022-09-07T08:23:16.567Z,101506.35
2022-09-07T08:25:51.343Z,101507.81
2022-09-07T08:28:20.472Z,101504.25
2022-09-07T08:30:51.776Z,101502.05
2022-09-07T08:33:21.030Z,101504.09
2022-09-07T08:36:00.251Z,101507.61
2022-09-07T08:38:30.183Z,101500.99
2022-09-07T08:41:02.288Z,101493.07
2022-09-07T08:43:49.076Z,101494.15
2022-09-07T08:46:31.209Z,101491.59
2022-09-07T08:49:02.567Z,101484.02
2022-09-07T08:51:36.832Z,101482.14
2022-09-07T08:54:06.431Z,101480.53
2022-09-07T08:56:39.320Z,101473.67
2022-09-07T08:59:17.023Z,101472.16
2022-09-07T09:05:16.284Z,101467.05
2022-09-07T09:06:10.906Z,101471.61
2022-09-07T09:07:30.557Z,101468.70
2022-09-07T09:10:16.615Z,101463.36
2022-09-07T09:13:01.914Z,101450.77
2022-09-07T09:15:42.710Z,101448.48
2022-09-07T09:18:26.206Z,101442.48
2022-09-07T09:20:56.833Z,101436.67
2022-09-07T09:23:27.984Z,101434.66
2022-09-07T09:25:59.329Z,101430.44
2022-09-07T09:28:30.327Z,101438.52
2022-09-07T09:31:01.100Z,101436.41
2022-09-07T09:33:29.671Z,101432.36
2022-09-07T09:36:01.908Z,101428.52
2022-09-07T09:38:33.504Z,101422.41
2022-09-07T09:41:05.805Z,101421.91
2022-09-07T09:43:43.727Z,101419.53
2022-09-07T09:46:24.230Z,101415.52
2022-09-07T09:48:59.319Z,101412.50
2022-09-07T09:54:25.455Z,101408.92
2022-09-07T09:56:54.132Z,101411.26
2022-09-07T10:05:34.140Z,101405.52
2022-09-07T10:08:04.019Z,101400.64
2022-09-07T10:10:32.408Z,101404.86
2022-09-07T10:13:00.833Z,101405.58
2022-09-07T10:15:39.924Z,101399.53
2022-09-07T10:18:20.563Z,101399.86
2022-09-07T10:20:49.396Z,101395.41
2022-09-07T10:23:23.737Z,101389.66
2022-09-07T10:25:52.391Z,101388.06
2022-09-07T10:28:22.550Z,101384.40
2022-09-07T10:31:15.087Z,101388.23
2022-09-07T10:36:52.118Z,101380.27
2022-09-07T10:39:26.553Z,101386.45
2022-09-07T10:42:01.459Z,101379.80
2022-09-07T10:44:42.498Z,101369.25
2022-09-07T10:47:25.195Z,101368.77
2022-09-07T10:52:55.695Z,101374.16
2022-09-07T10:55:31.264Z,101375.84
2022-09-07T10:58:14.203Z,101373.10
2022-09-07T11:00:57.015Z,101372.58
2022-09-07T11:03:43.011Z,101372.65
2022-09-07T11:06:19.883Z,101370.11
2022-09-07T11:09:18.510Z,101363.54
2022-09-07T11:12:02.014Z,101359.04
2022-09-07T11:14:36.996Z,101355.38
2022-09-07T11:17:15.382Z,101357.85
2022-09-07T11:19:50.153Z,101352.63
2022-09-07T11:22:30.365Z,101353.38
2022-09-07T11:28:01.712Z,101354.27
2022-09-07T11:30:34.283Z,101351.83
2022-09-07T11:33:12.628Z,101350.50
2022-09-07T11:35:48.670Z,101353.09
2022-09-07T11:38:25.574Z,101351.48
2022-09-07T11:41:07.501Z,101346.52
2022-09-07T11:43:41.520Z,101338.10
2022-09-07T11:46:14.404Z,101341.40
2022-09-07T11:48:47.844Z,101344.98
2022-09-07T11:51:22.463Z,101336.00
2022-09-07T11:53:57.080Z,101335.70
2022-09-07T11:56:29.846Z,101330.16
2022-09-07T11:59:37.134Z,101327.76
2022-09-07T12:02:58.333Z,101330.09
2022-09-07T12:05:43.302Z,101325.70
2022-09-07T12:08:29.435Z,101323.25
2022-09-07T12:11:13.286Z,101314.72
2022-09-07T12:13:59.826Z,101314.77
2022-09-07T12:16:56.778Z,101310.79
2022-09-07T12:19:26.845Z,101313.35
2022-09-07T12:21:57.463Z,101312.95
2022-09-07T12:24:42.805Z,101314.30
2022-09-07T12:27:26.754Z,101314.51
2022-09-07T12:30:28.443Z,101304.74
2022-09-07T12:33:18.512Z,101306.02
2022-09-07T12:35:47.258Z,101305.52
2022-09-07T12:39:00.350Z,101299.52
2022-09-07T12:41:43.625Z,101292.07
2022-09-07T12:44:33.446Z,101289.84
2022-09-07T12:47:18.626Z,101291.83
2022-09-07T12:50:05.978Z,101288.47
2022-09-07T12:53:06.951Z,101289.04
2022-09-07T12:58:56.505Z,101292.95
2022-09-07T13:01:35.990Z,101289.00
2022-09-07T13:04:25.875Z,101289.71
2022-09-07T13:07:20.426Z,101283.83
2022-09-07T13:09:56.443Z,101281.85
2022-09-07T13:15:42.867Z,101273.02
2022-09-07T13:18:27.026Z,101270.00
2022-09-07T13:21:33.611Z,101264.08
2022-09-07T13:24:46.064Z,101256.41
2022-09-07T13:27:41.325Z,101252.39
2022-09-07T13:30:37.511Z,101253.48
2022-09-07T13:33:41.008Z,101257.69
2022-09-07T13:36:21.265Z,101256.38
2022-09-07T13:38:51.848Z,101258.79
2022-09-07T13:41:23.121Z,101251.72
2022-09-07T13:44:00.979Z,101248.11
2022-09-07T13:46:40.928Z,101253.20
2022-09-07T13:49:24.371Z,101251.52
2022-09-07T13:52:00.547Z,101241.64
2022-09-07T13:54:52.676Z,101238.08
2022-09-07T13:57:28.186Z,101233.06
2022-09-07T13:59:57.109Z,101236.61
2022-09-07T14:02:31.698Z,101236.95
2022-09-07T14:05:01.990Z,101235.83
2022-09-07T14:07:31.989Z,101232.96
2022-09-07T14:10:18.975Z,101229.69
2022-09-07T14:12:50.322Z,101225.34
2022-09-07T14:15:22.116Z,101216.93
2022-09-07T14:18:01.813Z,101209.61
2022-09-07T14:20:31.750Z,101210.35
2022-09-07T14:23:00.587Z,101207.41
2022-09-07T14:25:29.743Z,101202.56
2022-09-07T14:27:59.809Z,101201.14
2022-09-07T14:30:32.450Z,101202.95
2022-09-07T14:33:03.271Z,101195.68
2022-09-07T14:35:34.827Z,101194.48
2022-09-07T14:38:14.583Z,101190.11
2022-09-07T14:40:44.944Z,101202.94
2022-09-07T14:43:29.684Z,101203.19
2022-09-07T14:46:16.067Z,101206.29
2022-09-07T14:48:48.225Z,101204.80
2022-09-07T14:51:32.679Z,101204.70
2022-09-07T14:54:06.450Z,101204.55
2022-09-07T14:56:36.916Z,101205.70
2022-09-07T14:59:34.625Z,101200.23
2022-09-07T15:02:24.249Z,101199.13
2022-09-07T15:05:17.934Z,101201.05
2022-09-07T15:07:48.624Z,101201.98
2022-09-07T15:10:31.735Z,101201.90
2022-09-07T15:13:02.322Z,101201.36
2022-09-07T15:15:33.529Z,101201.77
2022-09-07T15:18:08.438Z,101200.98
2022-09-07T15:20:40.217Z,101195.33
2022-09-07T15:23:12.436Z,101196.38
2022-09-07T15:25:45.453Z,101191.83
2022-09-07T15:34:09.582Z,101187.50
2022-09-07T15:36:48.739Z,101188.61
2022-09-07T15:39:19.925Z,101190.98
2022-09-07T15:41:49.320Z,101189.83
2022-09-07T15:44:22.830Z,101183.82
2022-09-07T15:49:51.385Z,101174.65
2022-09-07T15:52:23.319Z,101171.88
2022-09-07T15:54:51.705Z,101177.14
2022-09-07T16:00:13.505Z,101182.91
2022-09-07T16:05:31.571Z,101182.15
2022-09-07T16:10:55.901Z,101178.95
2022-09-07T16:13:33.776Z,101174.86
2022-09-07T16:16:06.132Z,101173.48
2022-09-07T16:18:35.328Z,101169.91
2022-09-07T16:21:11.890Z,101169.58
2022-09-07T16:23:46.528Z,101171.86
2022-09-07T16:26:17.119Z,101173.15
2022-09-07T16:28:48.322Z,101172.55
2022-09-07T16:31:18.232Z,101165.08
2022-09-07T16:33:47.056Z,101167.20
2022-09-07T16:36:17.453Z,101163.85
2022-09-07T16:38:49.096Z,101170.27
2022-09-07T16:41:20.628Z,101168.12
2022-09-07T16:43:50.354Z,101171.23
2022-09-07T16:46:20.958Z,101168.86
2022-09-07T16:48:53.887Z,101163.45
2022-09-07T16:51:24.595Z,101158.73
2022-09-07T16:53:55.175Z,101158.27
2022-09-07T16:56:26.963Z,101156.38
2022-09-07T16:58:57.250Z,101158.76
2022-09-07T17:01:28.062Z,101158.03
2022-09-07T17:03:57.526Z,101158.89
2022-09-07T17:06:29.695Z,101160.93
2022-09-07T17:08:59.698Z,101157.23
2022-09-07T17:11:30.858Z,101159.52
2022-09-07T17:13:59.771Z,101164.30
2022-09-07T17:16:30.383Z,101161.59
2022-09-07T17:21:52.170Z,101155.58
2022-09-07T17:24:21.102Z,101152.23
2022-09-07T17:26:49.530Z,101156.46
2022-09-07T17:29:18.427Z,101162.45
2022-09-07T17:34:39.038Z,101161.42
2022-09-07T17:37:09.088Z,101164.11
2022-09-07T17:39:38.319Z,101162.77
2022-09-07T17:42:07.380Z,101163.63
2022-09-07T17:44:38.317Z,101164.67
2022-09-07T17:47:07.079Z,101168.15
2022-09-07T17:49:35.753Z,101169.03
2022-09-07T17:52:04.876Z,101171.46
2022-09-07T17:54:33.582Z,101174.11
2022-09-07T17:57:07.957Z,101176.55
2022-09-07T18:02:26.650Z,101179.09
2022-09-07T18:04:55.190Z,101177.94
2022-09-07T18:07:23.588Z,101186.29
2022-09-07T18:09:51.989Z,101185.38
2022-09-07T18:12:20.423Z,101191.08
2022-09-07T18:14:48.846Z,101189.23
2022-09-07T18:17:17.307Z,101190.77
2022-09-07T18:19:45.748Z,101184.78
2022-09-07T18:22:15.309Z,101180.63
2022-09-07T18:24:44.271Z,101177.53
2022-09-07T18:27:13.086Z,101178.13
2022-09-07T18:29:42.839Z,101182.98
2022-09-07T18:32:12.189Z,101186.09
2022-09-07T18:34:41.623Z,101186.87
2022-09-07T18:37:12.500Z,101186.04
2022-09-07T18:39:41.337Z,101184.70
2022-09-07T18:42:10.903Z,101183.75
2022-09-07T18:47:29.791Z,101186.30
2022-09-07T18:49:59.642Z,101183.67
2022-09-07T18:55:19.878Z,101197.63
2022-09-07T18:57:48.924Z,101206.20
2022-09-07T19:00:17.917Z,101210.48
2022-09-07T19:02:50.640Z,101213.19
2022-09-07T19:08:08.465Z,101207.10
2022-09-07T19:10:37.659Z,101206.59
2022-09-07T19:13:06.499Z,101208.42
2022-09-07T19:15:38.761Z,101208.81
2022-09-07T19:18:09.257Z,101207.27
2022-09-07T19:20:38.467Z,101202.52
2022-09-07T19:23:07.065Z,101195.48
2022-09-07T19:25:40.784Z,101191.80
2022-09-07T19:28:11.351Z,101184.21
2022-09-07T19:30:39.791Z,101178.63
2022-09-07T19:33:11.436Z,101179.11
2022-09-07T19:35:39.873Z,101181.19
2022-09-07T19:38:08.532Z,101182.95
2022-09-07T19:40:37.107Z,101182.58
2022-09-07T19:43:05.817Z,101174.17
2022-09-07T19:45:39.154Z,101166.52
2022-09-07T19:48:12.288Z,101166.02
2022-09-07T19:50:44.146Z,101168.57
2022-09-07T19:53:13.065Z,101166.85
2022-09-07T19:55:42.170Z,101169.14
2022-09-07T19:58:11.883Z,101170.57
2022-09-07T20:00:41.039Z,101174.15
2022-09-07T20:03:10.056Z,101178.69
2022-09-07T20:05:39.767Z,101180.86
2022-09-07T20:08:08.648Z,101178.47
2022-09-07T20:10:37.073Z,101178.80
2022-09-07T20:13:05.456Z,101178.23
2022-09-07T20:15:38.838Z,101171.00
2022-09-07T20:18:07.517Z,101168.23
2022-09-07T20:20:35.993Z,101168.99
2022-09-07T20:23:04.385Z,101169.44
2022-09-07T20:25:32.749Z,101173.41
2022-09-07T20:28:01.249Z,101175.77
2022-09-07T20:30:33.757Z,101175.23
2022-09-07T20:33:02.320Z,101180.92
2022-09-07T20:35:32.373Z,101184.07
2022-09-07T20:38:01.949Z,101183.13
2022-09-07T20:40:31.530Z,101181.14
2022-09-07T20:42:59.969Z,101181.98
2022-09-07T20:45:31.763Z,101186.72
2022-09-07T20:48:01.136Z,101182.98
2022-09-07T20:50:29.513Z,101185.59
2022-09-07T20:53:00.677Z,101181.97
2022-09-07T20:55:29.091Z,101183.13
2022-09-07T20:57:57.532Z,101181.86
2022-09-07T21:00:26.068Z,101181.89
2022-09-07T21:02:54.526Z,101177.93
2022-09-07T21:05:22.937Z,101179.96
2022-09-07T21:07:51.357Z,101180.56
2022-09-07T21:10:19.886Z,101177.30
2022-09-07T21:12:48.287Z,101174.48
2022-09-07T21:15:16.982Z,101170.77
2022-09-07T21:17:45.424Z,101171.38
2022-09-07T21:20:14.445Z,101172.37
2022-09-07T21:22:43.081Z,101168.85
2022-09-07T21:25:14.248Z,101176.20
2022-09-07T21:27:42.619Z,101172.00
2022-09-07T21:30:12.905Z,101171.96
2022-09-07T21:32:41.340Z,101170.42
2022-09-07T21:35:11.754Z,101173.88
2022-09-07T21:37:40.216Z,101176.88
2022-09-07T21:40:10.567Z,101176.75
2022-09-07T21:42:40.234Z,101179.19
2022-09-07T21:45:11.247Z,101179.66
2022-09-07T21:47:39.941Z,101176.58
2022-09-07T21:50:08.758Z,101179.27
2022-09-07T21:52:38.120Z,101182.11
2022-09-07T21:55:10.986Z,101181.81
2022-09-07T21:57:41.390Z,101185.97
2022-09-07T22:00:12.263Z,101185.36
2022-09-07T22:02:45.221Z,101186.96
2022-09-07T22:05:13.687Z,101188.27
2022-09-07T22:07:42.015Z,101187.27
2022-09-07T22:10:13.347Z,101186.44
2022-09-07T22:12:41.817Z,101183.83
2022-09-07T22:15:11.091Z,101184.20
2022-09-07T22:17:42.317Z,101181.20
2022-09-07T22:20:14.284Z,101175.00
2022-09-07T22:22:42.777Z,101170.97
2022-09-07T22:25:11.279Z,101171.42
2022-09-07T22:27:39.731Z,101168.84
2022-09-07T22:30:11.014Z,101170.98
2022-09-07T22:32:39.568Z,101171.55
2022-09-07T22:35:09.617Z,101174.57
2022-09-07T22:37:37.982Z,101172.59
2022-09-07T22:40:08.477Z,101181.44
2022-09-07T22:42:37.347Z,101176.53
2022-09-07T22:45:07.864Z,101175.13
2022-09-07T22:47:36.272Z,101173.91
2022-09-07T22:50:06.230Z,101173.34
2022-09-07T22:52:36.814Z,101177.61
2022-09-07T22:55:06.708Z,101175.61
2022-09-07T22:57:35.076Z,101169.88
2022-09-07T23:00:05.788Z,101165.91
2022-09-07T23:02:34.263Z,101161.60
2022-09-07T23:05:03.548Z,101161.59
2022-09-07T23:07:31.994Z,101160.07
2022-09-07T23:10:02.973Z,101160.40
2022-09-07T23:12:31.396Z,101166.58
2022-09-07T23:14:59.774Z,101165.31
2022-09-07T23:17:28.110Z,101164.44
2022-09-07T23:19:56.466Z,101163.37
2022-09-07T23:22:24.946Z,101160.48
2022-09-07T23:24:53.350Z,101158.65
2022-09-07T23:27:21.715Z,101152.21
2022-09-07T23:29:50.238Z,101146.16
2022-09-07T23:32:18.588Z,101146.25
2022-09-07T23:34:47.064Z,101147.82
2022-09-07T23:37:15.566Z,101144.59
2022-09-07T23:39:44.010Z,101140.70
2022-09-07T23:42:12.443Z,101134.73
2022-09-07T23:44:40.915Z,101132.77
2022-09-07T23:47:09.287Z,101131.89
2022-09-07T23:49:37.704Z,101129.60
2022-09-07T23:52:06.358Z,101132.20
2022-09-07T23:54:34.767Z,101132.14
2022-09-07T23:57:03.340Z,101129.10
2022-09-07T23:59:33.259Z,101128.01
